sensor_id;sensor_type;location;lat;lon;timestamp;pressure;altitude;pressure_sealevel;temperature;humidity
65280;BME280;51878;55.748;48.742;2023-03-26T00:04:38;97901.75;;;8.58;100.00
65280;BME280;51878;55.748;48.742;2023-03-26T00:09:40;97913.97;;;8.67;100.00
65280;BME280;51878;55.748;48.742;2023-03-26T00:14:42;97849.44;;;8.26;100.00
65280;BME280;51878;55.748;48.742;2023-03-26T00:19:44;97922.31;;;8.59;100.00
65280;BME280;51878;55.748;48.742;2023-03-26T00:24:46;97977.34;;;8.78;100.00
65280;BME280;51878;55.748;48.742;2023-03-26T00:29:51;97954.47;;;8.74;100.00
65280;BME280;51878;55.748;48.742;2023-03-26T00:34:57;97960.31;;;8.71;100.00
65280;BME280;51878;55.748;48.742;2023-03-26T00:39:59;97943.53;;;8.56;100.00
65280;BME280;51878;55.748;48.742;2023-03-26T00:45:08;97975.06;;;8.68;100.00
65280;BME280;51878;55.748;48.742;2023-03-26T00:50:10;97927.34;;;8.29;100.00
65280;BME280;51878;55.748;48.742;2023-03-26T00:55:16;97985.06;;;8.61;100.00
65280;BME280;51878;55.748;48.742;2023-03-26T01:00:30;97997.56;;;8.56;100.00
65280;BME280;51878;55.748;48.742;2023-03-26T01:10:50;97980.94;;;8.45;100.00
65280;BME280;51878;55.748;48.742;2023-03-26T01:15:54;97931.72;;;8.10;100.00
65280;BME280;51878;55.748;48.742;2023-03-26T01:21:00;98005.44;;;8.51;100.00
65280;BME280;51878;55.748;48.742;2023-03-26T01:26:29;98013.53;;;8.44;100.00
65280;BME280;51878;55.748;48.742;2023-03-26T01:31:54;98013.16;;;8.40;100.00
65280;BME280;51878;55.748;48.742;2023-03-26T01:37:18;97975.91;;;8.09;100.00
65280;BME280;51878;55.748;48.742;2023-03-26T01:42:56;98025.56;;;8.35;100.00
65280;BME280;51878;55.748;48.742;2023-03-26T01:48:01;97988.19;;;8.12;100.00
65280;BME280;51878;55.748;48.742;2023-03-26T01:53:04;98026.63;;;8.27;100.00
65280;BME280;51878;55.748;48.742;2023-03-26T01:58:11;98041.97;;;8.40;100.00
65280;BME280;51878;55.748;48.742;2023-03-26T02:08:39;98038.44;;;8.33;100.00
65280;BME280;51878;55.748;48.742;2023-03-26T02:13:44;98034.50;;;8.35;100.00
65280;BME280;51878;55.748;48.742;2023-03-26T02:18:48;98001.47;;;8.13;100.00
65280;BME280;51878;55.748;48.742;2023-03-26T02:23:54;98021.84;;;8.22;100.00
65280;BME280;51878;55.748;48.742;2023-03-26T02:29:04;98018.50;;;8.14;100.00
65280;BME280;51878;55.748;48.742;2023-03-26T02:34:06;98038.03;;;8.29;100.00
65280;BME280;51878;55.748;48.742;2023-03-26T02:39:09;98040.31;;;8.25;100.00
65280;BME280;51878;55.748;48.742;2023-03-26T02:44:17;97954.72;;;7.59;100.00
65280;BME280;51878;55.748;48.742;2023-03-26T02:49:19;97913.16;;;7.34;100.00
65280;BME280;51878;55.748;48.742;2023-03-26T02:54:22;98051.72;;;8.14;100.00
65280;BME280;51878;55.748;48.742;2023-03-26T02:59:24;98076.03;;;8.27;100.00
65280;BME280;51878;55.748;48.742;2023-03-26T03:04:26;98005.19;;;7.85;100.00
65280;BME280;51878;55.748;48.742;2023-03-26T03:09:28;98034.28;;;8.30;100.00
65280;BME280;51878;55.748;48.742;2023-03-26T03:14:31;97951.84;;;7.81;100.00
65280;BME280;51878;55.748;48.742;2023-03-26T03:19:33;98046.97;;;8.36;100.00
65280;BME280;51878;55.748;48.742;2023-03-26T03:24:35;98003.75;;;8.23;100.00
65280;BME280;51878;55.748;48.742;2023-03-26T03:29:37;98043.88;;;8.59;100.00
65280;BME280;51878;55.748;48.742;2023-03-26T03:34:39;98012.09;;;8.41;100.00
65280;BME280;51878;55.748;48.742;2023-03-26T03:39:43;98048.66;;;8.57;100.00
65280;BME280;51878;55.748;48.742;2023-03-26T03:44:45;98045.94;;;8.57;100.00
65280;BME280;51878;55.748;48.742;2023-03-26T03:49:47;98045.56;;;8.47;100.00
65280;BME280;51878;55.748;48.742;2023-03-26T03:54:50;98008.94;;;8.31;100.00
65280;BME280;51878;55.748;48.742;2023-03-26T03:59:52;98029.09;;;8.35;100.00
65280;BME280;51878;55.748;48.742;2023-03-26T04:04:55;98082.31;;;8.68;100.00
65280;BME280;51878;55.748;48.742;2023-03-26T04:10:01;98079.22;;;8.51;100.00
65280;BME280;51878;55.748;48.742;2023-03-26T04:15:06;98035.53;;;8.14;100.00
65280;BME280;51878;55.748;48.742;2023-03-26T04:20:11;98096.88;;;8.54;100.00
65280;BME280;51878;55.748;48.742;2023-03-26T04:25:16;98080.44;;;8.48;100.00
65280;BME280;51878;55.748;48.742;2023-03-26T04:30:19;98092.09;;;8.56;100.00
65280;BME280;51878;55.748;48.742;2023-03-26T04:35:21;97949.09;;;7.54;100.00
65280;BME280;51878;55.748;48.742;2023-03-26T04:40:24;98118.06;;;8.63;100.00
65280;BME280;51878;55.748;48.742;2023-03-26T04:45:26;97966.50;;;7.58;100.00
65280;BME280;51878;55.748;48.742;2023-03-26T04:50:31;98124.72;;;8.74;100.00
65280;BME280;51878;55.748;48.742;2023-03-26T04:55:56;98058.59;;;8.37;100.00
65280;BME280;51878;55.748;48.742;2023-03-26T05:01:01;98117.88;;;8.72;100.00
65280;BME280;51878;55.748;48.742;2023-03-26T05:06:10;98131.78;;;8.88;100.00
65280;BME280;51878;55.748;48.742;2023-03-26T05:11:13;98117.22;;;8.89;100.00
65280;BME280;51878;55.748;48.742;2023-03-26T05:16:20;98017.09;;;8.44;100.00
65280;BME280;51878;55.748;48.742;2023-03-26T05:21:23;98074.41;;;8.80;100.00
65280;BME280;51878;55.748;48.742;2023-03-26T05:26:25;98120.97;;;9.15;100.00
65280;BME280;51878;55.748;48.742;2023-03-26T05:31:27;98083.75;;;8.90;100.00
65280;BME280;51878;55.748;48.742;2023-03-26T05:36:31;98112.84;;;9.08;100.00
65280;BME280;51878;55.748;48.742;2023-03-26T05:41:35;98171.06;;;9.31;100.00
65280;BME280;51878;55.748;48.742;2023-03-26T05:46:37;98155.47;;;9.20;100.00
65280;BME280;51878;55.748;48.742;2023-03-26T05:51:39;98172.69;;;9.39;100.00
65280;BME280;51878;55.748;48.742;2023-03-26T05:56:41;98152.94;;;9.31;100.00
65280;BME280;51878;55.748;48.742;2023-03-26T06:01:44;98099.75;;;8.92;100.00
65280;BME280;51878;55.748;48.742;2023-03-26T06:06:46;98095.59;;;8.89;100.00
65280;BME280;51878;55.748;48.742;2023-03-26T06:11:48;98146.94;;;9.23;100.00
65280;BME280;51878;55.748;48.742;2023-03-26T06:16:51;98055.72;;;8.65;100.00
65280;BME280;51878;55.748;48.742;2023-03-26T06:21:53;98098.50;;;8.88;100.00
65280;BME280;51878;55.748;48.742;2023-03-26T06:26:58;98157.53;;;9.31;100.00
65280;BME280;51878;55.748;48.742;2023-03-26T06:32:00;98163.13;;;9.43;100.00
65280;BME280;51878;55.748;48.742;2023-03-26T06:37:13;98183.50;;;9.45;100.00
65280;BME280;51878;55.748;48.742;2023-03-26T06:42:15;98165.84;;;9.36;100.00
65280;BME280;51878;55.748;48.742;2023-03-26T06:47:17;98132.59;;;9.22;100.00
65280;BME280;51878;55.748;48.742;2023-03-26T06:52:19;98119.28;;;9.01;100.00
65280;BME280;51878;55.748;48.742;2023-03-26T06:57:26;98186.63;;;9.42;100.00
65280;BME280;51878;55.748;48.742;2023-03-26T07:02:29;98165.44;;;9.26;100.00
65280;BME280;51878;55.748;48.742;2023-03-26T07:07:31;98183.13;;;9.42;100.00
65280;BME280;51878;55.748;48.742;2023-03-26T07:12:36;98165.63;;;9.38;100.00
65280;BME280;51878;55.748;48.742;2023-03-26T07:17:38;98171.66;;;9.46;100.00
65280;BME280;51878;55.748;48.742;2023-03-26T07:22:41;98167.69;;;9.49;100.00
65280;BME280;51878;55.748;48.742;2023-03-26T07:34:10;98167.06;;;9.54;100.00
65280;BME280;51878;55.748;48.742;2023-03-26T07:44:35;98108.22;;;9.36;100.00
65280;BME280;51878;55.748;48.742;2023-03-26T07:49:41;98156.09;;;9.93;100.00
65280;BME280;51878;55.748;48.742;2023-03-26T07:54:44;98166.38;;;10.23;100.00
65280;BME280;51878;55.748;48.742;2023-03-26T07:59:53;98141.78;;;10.25;100.00
65280;BME280;51878;55.748;48.742;2023-03-26T08:05:12;98183.00;;;10.72;100.00
65280;BME280;51878;55.748;48.742;2023-03-26T08:21:16;98165.88;;;11.03;100.00
65280;BME280;51878;55.748;48.742;2023-03-26T08:31:33;98114.75;;;11.07;100.00
65280;BME280;51878;55.748;48.742;2023-03-26T08:36:36;98169.38;;;11.54;100.00
65280;BME280;51878;55.748;48.742;2023-03-26T08:52:41;98184.56;;;11.98;100.00
65280;BME280;51878;55.748;48.742;2023-03-26T09:25:53;98154.94;;;13.11;100.00
65280;BME280;51878;55.748;48.742;2023-03-26T09:36:46;98101.34;;;13.35;100.00
65280;BME280;51878;55.748;48.742;2023-03-26T09:47:48;98140.44;;;14.34;95.81
65280;BME280;51878;55.748;48.742;2023-03-26T09:59:12;98145.44;;;14.82;87.82
65280;BME280;51878;55.748;48.742;2023-03-26T10:27:06;98134.88;;;15.76;73.52
65280;BME280;51878;55.748;48.742;2023-03-26T10:58:34;98077.59;;;16.08;71.58
65280;BME280;51878;55.748;48.742;2023-03-26T11:03:53;98073.09;;;15.97;71.23
65280;BME280;51878;55.748;48.742;2023-03-26T11:19:41;98076.34;;;15.33;78.61
65280;BME280;51878;55.748;48.742;2023-03-26T11:35:50;98085.38;;;15.72;80.50
65280;BME280;51878;55.748;48.742;2023-03-26T11:40:55;98036.94;;;16.17;74.49
65280;BME280;51878;55.748;48.742;2023-03-26T11:45:58;98030.53;;;16.33;72.57
65280;BME280;51878;55.748;48.742;2023-03-26T11:51:17;98026.78;;;16.71;70.16
65280;BME280;51878;55.748;48.742;2023-03-26T11:56:31;98070.53;;;17.89;66.44
65280;BME280;51878;55.748;48.742;2023-03-26T12:06:56;98004.78;;;18.30;60.15
65280;BME280;51878;55.748;48.742;2023-03-26T12:12:00;98043.25;;;19.02;56.02
65280;BME280;51878;55.748;48.742;2023-03-26T12:17:07;98076.69;;;19.50;53.77
65280;BME280;51878;55.748;48.742;2023-03-26T12:22:38;98058.41;;;20.00;51.30
65280;BME280;51878;55.748;48.742;2023-03-26T12:27:47;98027.94;;;19.81;51.70
65280;BME280;51878;55.748;48.742;2023-03-26T12:32:54;97981.78;;;19.63;52.04
65280;BME280;51878;55.748;48.742;2023-03-26T12:38:23;98033.84;;;20.48;50.83
65280;BME280;51878;55.748;48.742;2023-03-26T12:43:37;97967.50;;;20.50;49.16
65280;BME280;51878;55.748;48.742;2023-03-26T12:49:02;98013.69;;;20.63;49.43
65280;BME280;51878;55.748;48.742;2023-03-26T12:54:22;97988.56;;;20.70;48.68
65280;BME280;51878;55.748;48.742;2023-03-26T13:10:24;97991.59;;;21.75;46.63
65280;BME280;51878;55.748;48.742;2023-03-26T13:15:36;97981.50;;;21.17;47.75
65280;BME280;51878;55.748;48.742;2023-03-26T13:25:53;97978.69;;;19.04;52.75
65280;BME280;51878;55.748;48.742;2023-03-26T13:31:04;97912.28;;;17.94;55.34
65280;BME280;51878;55.748;48.742;2023-03-26T13:41:56;97972.38;;;17.28;60.44
65280;BME280;51878;55.748;48.742;2023-03-26T13:57:42;97919.00;;;16.08;66.79
65280;BME280;51878;55.748;48.742;2023-03-26T14:03:09;97930.66;;;15.98;68.49
65280;BME280;51878;55.748;48.742;2023-03-26T14:08:20;97875.03;;;15.55;70.49
65280;BME280;51878;55.748;48.742;2023-03-26T14:14:14;97919.16;;;15.69;71.18
65280;BME280;51878;55.748;48.742;2023-03-26T14:56:41;97893.28;;;13.60;94.53
65280;BME280;51878;55.748;48.742;2023-03-26T15:39:49;97900.44;;;12.21;100.00
65280;BME280;51878;55.748;48.742;2023-03-26T15:45:28;97890.16;;;11.99;100.00
65280;BME280;51878;55.748;48.742;2023-03-26T15:50:52;97843.31;;;11.74;100.00
65280;BME280;51878;55.748;48.742;2023-03-26T16:12:55;97919.34;;;11.74;100.00
65280;BME280;51878;55.748;48.742;2023-03-26T16:18:26;97879.66;;;11.31;100.00
65280;BME280;51878;55.748;48.742;2023-03-26T16:55:22;97932.09;;;10.94;100.00
65280;BME280;51878;55.748;48.742;2023-03-26T17:00:38;97903.09;;;10.58;100.00
65280;BME280;51878;55.748;48.742;2023-03-26T17:11:23;97943.16;;;11.30;96.19
65280;BME280;51878;55.748;48.742;2023-03-26T17:16:34;97911.22;;;11.13;94.28
65280;BME280;51878;55.748;48.742;2023-03-26T17:27:25;97826.25;;;10.52;94.11
65280;BME280;51878;55.748;48.742;2023-03-26T17:32:56;97835.75;;;10.43;95.67
65280;BME280;51878;55.748;48.742;2023-03-26T17:37:59;97879.38;;;10.53;96.57
65280;BME280;51878;55.748;48.742;2023-03-26T17:43:08;97907.09;;;10.55;97.41
65280;BME280;51878;55.748;48.742;2023-03-26T17:48:20;97866.63;;;10.17;98.06
65280;BME280;51878;55.748;48.742;2023-03-26T17:53:29;97925.84;;;10.57;97.83
65280;BME280;51878;55.748;48.742;2023-03-26T17:58:40;97936.00;;;10.62;97.88
65280;BME280;51878;55.748;48.742;2023-03-26T18:03:57;97944.81;;;10.57;98.60
65280;BME280;51878;55.748;48.742;2023-03-26T18:20:27;97819.72;;;9.55;100.00
65280;BME280;51878;55.748;48.742;2023-03-26T18:25:33;97937.78;;;10.31;100.00
65280;BME280;51878;55.748;48.742;2023-03-26T18:30:45;97933.97;;;10.39;100.00
65280;BME280;51878;55.748;48.742;2023-03-26T18:35:53;97888.19;;;10.05;100.00
65280;BME280;51878;55.748;48.742;2023-03-26T18:40:57;97856.72;;;9.86;100.00
65280;BME280;51878;55.748;48.742;2023-03-26T18:45:59;97928.47;;;10.20;100.00
65280;BME280;51878;55.748;48.742;2023-03-26T18:51:04;97896.66;;;9.90;100.00
65280;BME280;51878;55.748;48.742;2023-03-26T18:56:27;97915.16;;;9.93;100.00
65280;BME280;51878;55.748;48.742;2023-03-26T19:01:32;97895.75;;;9.71;100.00
65280;BME280;51878;55.748;48.742;2023-03-26T19:06:38;97851.44;;;9.41;100.00
65280;BME280;51878;55.748;48.742;2023-03-26T19:11:48;97843.06;;;9.17;100.00
65280;BME280;51878;55.748;48.742;2023-03-26T19:16:57;97868.66;;;9.15;100.00
65280;BME280;51878;55.748;48.742;2023-03-26T19:22:03;97900.19;;;9.27;100.00
65280;BME280;51878;55.748;48.742;2023-03-26T19:27:05;97848.44;;;8.85;100.00
65280;BME280;51878;55.748;48.742;2023-03-26T19:32:27;97936.16;;;9.28;100.00
65280;BME280;51878;55.748;48.742;2023-03-26T19:37:30;97928.69;;;9.30;100.00
65280;BME280;51878;55.748;48.742;2023-03-26T19:42:32;97900.69;;;9.18;100.00
65280;BME280;51878;55.748;48.742;2023-03-26T19:47:46;97801.34;;;8.61;100.00
65280;BME280;51878;55.748;48.742;2023-03-26T19:53:13;97913.50;;;9.29;100.00
65280;BME280;51878;55.748;48.742;2023-03-26T19:58:18;97717.41;;;8.11;100.00
65280;BME280;51878;55.748;48.742;2023-03-26T20:03:24;97904.25;;;9.43;100.00
65280;BME280;51878;55.748;48.742;2023-03-26T20:08:27;97831.16;;;9.25;100.00
65280;BME280;51878;55.748;48.742;2023-03-26T20:13:29;97918.41;;;9.77;100.00
65280;BME280;51878;55.748;48.742;2023-03-26T20:18:33;97734.59;;;8.68;100.00
65280;BME280;51878;55.748;48.742;2023-03-26T20:23:35;97890.84;;;9.62;100.00
65280;BME280;51878;55.748;48.742;2023-03-26T20:28:38;97879.69;;;9.45;100.00
65280;BME280;51878;55.748;48.742;2023-03-26T20:33:48;97875.31;;;9.50;100.00
65280;BME280;51878;55.748;48.742;2023-03-26T20:38:51;97821.00;;;9.20;100.00
65280;BME280;51878;55.748;48.742;2023-03-26T20:43:54;97854.19;;;9.34;100.00
65280;BME280;51878;55.748;48.742;2023-03-26T20:48:56;97867.44;;;9.42;100.00
65280;BME280;51878;55.748;48.742;2023-03-26T20:53:58;97874.94;;;9.40;100.00
65280;BME280;51878;55.748;48.742;2023-03-26T20:59:01;97847.59;;;9.23;100.00
65280;BME280;51878;55.748;48.742;2023-03-26T21:04:12;97852.53;;;9.33;100.00
65280;BME280;51878;55.748;48.742;2023-03-26T21:09:16;97853.09;;;9.42;100.00
65280;BME280;51878;55.748;48.742;2023-03-26T21:14:46;97872.75;;;9.56;100.00
65280;BME280;51878;55.748;48.742;2023-03-26T21:19:48;97861.06;;;9.62;100.00
65280;BME280;51878;55.748;48.742;2023-03-26T21:30:13;97869.28;;;9.73;100.00
65280;BME280;51878;55.748;48.742;2023-03-26T21:35:17;97837.41;;;9.76;100.00
65280;BME280;51878;55.748;48.742;2023-03-26T21:40:20;97805.06;;;9.62;100.00
65280;BME280;51878;55.748;48.742;2023-03-26T21:45:22;97839.06;;;10.02;100.00
65280;BME280;51878;55.748;48.742;2023-03-26T21:50:24;97732.97;;;9.49;100.00
65280;BME280;51878;55.748;48.742;2023-03-26T21:55:27;97846.59;;;10.18;100.00
65280;BME280;51878;55.748;48.742;2023-03-26T22:06:13;97769.25;;;9.85;100.00
65280;BME280;51878;55.748;48.742;2023-03-26T22:11:16;97811.56;;;10.23;100.00
65280;BME280;51878;55.748;48.742;2023-03-26T22:16:19;97752.56;;;9.88;100.00
65280;BME280;51878;55.748;48.742;2023-03-26T22:21:25;97803.66;;;10.22;100.00
65280;BME280;51878;55.748;48.742;2023-03-26T22:26:29;97762.44;;;10.01;100.00
65280;BME280;51878;55.748;48.742;2023-03-26T22:31:31;97797.84;;;10.18;100.00
65280;BME280;51878;55.748;48.742;2023-03-26T22:36:33;97810.44;;;10.12;100.00
65280;BME280;51878;55.748;48.742;2023-03-26T22:41:36;97819.03;;;10.03;100.00
65280;BME280;51878;55.748;48.742;2023-03-26T22:46:39;97733.28;;;9.35;100.00
65280;BME280;51878;55.748;48.742;2023-03-26T22:51:41;97774.09;;;9.58;100.00
65280;BME280;51878;55.748;48.742;2023-03-26T22:56:43;97774.53;;;9.55;100.00
65280;BME280;51878;55.748;48.742;2023-03-26T23:01:46;97800.25;;;9.64;100.00
65280;BME280;51878;55.748;48.742;2023-03-26T23:06:48;97777.97;;;9.44;100.00
65280;BME280;51878;55.748;48.742;2023-03-26T23:11:50;97820.56;;;9.73;100.00
65280;BME280;51878;55.748;48.742;2023-03-26T23:16:52;97788.56;;;9.70;100.00
65280;BME280;51878;55.748;48.742;2023-03-26T23:21:55;97835.59;;;9.69;100.00
65280;BME280;51878;55.748;48.742;2023-03-26T23:26:58;97790.34;;;9.33;100.00
65280;BME280;51878;55.748;48.742;2023-03-26T23:32:00;97847.34;;;9.57;100.00
65280;BME280;51878;55.748;48.742;2023-03-26T23:37:02;97788.19;;;9.10;100.00
65280;BME280;51878;55.748;48.742;2023-03-26T23:42:04;97777.09;;;8.93;100.00
65280;BME280;51878;55.748;48.742;2023-03-26T23:47:06;97819.28;;;9.26;100.00
65280;BME280;51878;55.748;48.742;2023-03-26T23:52:11;97668.81;;;8.18;100.00
65280;BME280;51878;55.748;48.742;2023-03-26T23:57:14;97781.44;;;8.94;100.00
